sensor_id;sensor_type;location;lat;lon;timestamp;P1;durP1;ratioP1;P2;durP2;ratioP2
28266;SDS011;15525;45.568;5.448;2023-05-10T00:01:05;3.67;;;2.55;;
28266;SDS011;15525;45.568;5.448;2023-05-10T00:03:30;5.60;;;2.67;;
28266;SDS011;15525;45.568;5.448;2023-05-10T00:05:56;5.10;;;2.58;;
28266;SDS011;15525;45.568;5.448;2023-05-10T00:08:22;12.75;;;3.60;;
28266;SDS011;15525;45.568;5.448;2023-05-10T00:10:47;3.78;;;2.47;;
28266;SDS011;15525;45.568;5.448;2023-05-10T00:13:13;6.85;;;2.85;;
28266;SDS011;15525;45.568;5.448;2023-05-10T00:15:38;4.47;;;2.83;;
28266;SDS011;15525;45.568;5.448;2023-05-10T00:18:04;8.20;;;3.03;;
28266;SDS011;15525;45.568;5.448;2023-05-10T00:20:29;5.20;;;3.15;;
28266;SDS011;15525;45.568;5.448;2023-05-10T00:22:55;5.93;;;3.08;;
28266;SDS011;15525;45.568;5.448;2023-05-10T00:25:20;6.00;;;3.28;;
28266;SDS011;15525;45.568;5.448;2023-05-10T00:27:46;4.30;;;2.78;;
28266;SDS011;15525;45.568;5.448;2023-05-10T00:30:12;6.03;;;2.90;;
28266;SDS011;15525;45.568;5.448;2023-05-10T00:32:38;3.30;;;2.78;;
28266;SDS011;15525;45.568;5.448;2023-05-10T00:35:03;8.65;;;3.00;;
28266;SDS011;15525;45.568;5.448;2023-05-10T00:37:29;4.18;;;2.92;;
28266;SDS011;15525;45.568;5.448;2023-05-10T00:39:55;5.85;;;3.08;;
28266;SDS011;15525;45.568;5.448;2023-05-10T00:42:20;4.70;;;3.00;;
28266;SDS011;15525;45.568;5.448;2023-05-10T00:44:46;6.68;;;3.08;;
28266;SDS011;15525;45.568;5.448;2023-05-10T00:47:11;7.93;;;2.90;;
28266;SDS011;15525;45.568;5.448;2023-05-10T00:49:37;3.00;;;2.50;;
28266;SDS011;15525;45.568;5.448;2023-05-10T00:52:03;5.47;;;2.60;;
28266;SDS011;15525;45.568;5.448;2023-05-10T00:54:29;4.80;;;3.00;;
28266;SDS011;15525;45.568;5.448;2023-05-10T00:56:55;6.22;;;2.90;;
28266;SDS011;15525;45.568;5.448;2023-05-10T00:59:22;7.60;;;3.95;;
28266;SDS011;15525;45.568;5.448;2023-05-10T01:01:48;5.45;;;3.15;;
28266;SDS011;15525;45.568;5.448;2023-05-10T01:04:14;5.75;;;3.30;;
28266;SDS011;15525;45.568;5.448;2023-05-10T01:06:40;8.10;;;3.70;;
28266;SDS011;15525;45.568;5.448;2023-05-10T01:09:06;5.72;;;3.42;;
28266;SDS011;15525;45.568;5.448;2023-05-10T01:11:35;3.80;;;3.40;;
28266;SDS011;15525;45.568;5.448;2023-05-10T01:14:02;6.60;;;3.67;;
28266;SDS011;15525;45.568;5.448;2023-05-10T01:16:29;6.20;;;3.58;;
28266;SDS011;15525;45.568;5.448;2023-05-10T01:19:00;7.72;;;4.15;;
28266;SDS011;15525;45.568;5.448;2023-05-10T01:24:10;9.05;;;3.92;;
28266;SDS011;15525;45.568;5.448;2023-05-10T01:40:47;8.07;;;4.57;;
28266;SDS011;15525;45.568;5.448;2023-05-10T01:43:26;9.05;;;4.57;;
28266;SDS011;15525;45.568;5.448;2023-05-10T01:48:29;8.00;;;4.40;;
28266;SDS011;15525;45.568;5.448;2023-05-10T01:50:56;5.97;;;4.22;;
28266;SDS011;15525;45.568;5.448;2023-05-10T01:53:23;7.25;;;4.35;;
28266;SDS011;15525;45.568;5.448;2023-05-10T01:55:52;7.00;;;4.70;;
28266;SDS011;15525;45.568;5.448;2023-05-10T01:58:21;8.32;;;4.22;;
28266;SDS011;15525;45.568;5.448;2023-05-10T02:00:50;8.85;;;4.60;;
28266;SDS011;15525;45.568;5.448;2023-05-10T02:03:17;10.07;;;4.75;;
28266;SDS011;15525;45.568;5.448;2023-05-10T02:05:45;12.00;;;5.20;;
28266;SDS011;15525;45.568;5.448;2023-05-10T02:08:13;7.88;;;5.03;;
28266;SDS011;15525;45.568;5.448;2023-05-10T02:10:40;8.15;;;5.50;;
28266;SDS011;15525;45.568;5.448;2023-05-10T02:13:07;12.23;;;5.20;;
28266;SDS011;15525;45.568;5.448;2023-05-10T02:15:35;12.00;;;5.22;;
28266;SDS011;15525;45.568;5.448;2023-05-10T02:18:04;7.97;;;4.82;;
28266;SDS011;15525;45.568;5.448;2023-05-10T02:20:31;11.15;;;5.70;;
28266;SDS011;15525;45.568;5.448;2023-05-10T02:22:57;7.88;;;4.93;;
28266;SDS011;15525;45.568;5.448;2023-05-10T02:25:23;10.25;;;4.90;;
28266;SDS011;15525;45.568;5.448;2023-05-10T02:27:51;8.38;;;4.72;;
28266;SDS011;15525;45.568;5.448;2023-05-10T02:30:21;7.88;;;4.85;;
28266;SDS011;15525;45.568;5.448;2023-05-10T02:32:48;9.70;;;4.93;;
28266;SDS011;15525;45.568;5.448;2023-05-10T02:35:15;9.23;;;4.80;;
28266;SDS011;15525;45.568;5.448;2023-05-10T02:37:41;9.98;;;5.10;;
28266;SDS011;15525;45.568;5.448;2023-05-10T02:40:08;10.05;;;5.30;;
28266;SDS011;15525;45.568;5.448;2023-05-10T02:42:36;10.48;;;5.55;;
28266;SDS011;15525;45.568;5.448;2023-05-10T02:45:12;9.48;;;4.78;;
28266;SDS011;15525;45.568;5.448;2023-05-10T02:47:40;9.75;;;4.90;;
28266;SDS011;15525;45.568;5.448;2023-05-10T02:50:06;7.78;;;4.60;;
28266;SDS011;15525;45.568;5.448;2023-05-10T02:55:32;8.05;;;4.47;;
28266;SDS011;15525;45.568;5.448;2023-05-10T02:58:02;9.02;;;4.38;;
28266;SDS011;15525;45.568;5.448;2023-05-10T03:00:28;6.45;;;4.40;;
28266;SDS011;15525;45.568;5.448;2023-05-10T03:02:54;6.68;;;4.50;;
28266;SDS011;15525;45.568;5.448;2023-05-10T03:05:19;9.95;;;4.43;;
28266;SDS011;15525;45.568;5.448;2023-05-10T03:07:45;7.72;;;4.45;;
28266;SDS011;15525;45.568;5.448;2023-05-10T03:10:11;8.00;;;4.63;;
28266;SDS011;15525;45.568;5.448;2023-05-10T03:12:56;9.63;;;4.85;;
28266;SDS011;15525;45.568;5.448;2023-05-10T03:18:13;9.70;;;4.80;;
28266;SDS011;15525;45.568;5.448;2023-05-10T03:20:46;7.10;;;4.67;;
28266;SDS011;15525;45.568;5.448;2023-05-10T03:23:19;7.32;;;4.70;;
28266;SDS011;15525;45.568;5.448;2023-05-10T03:25:48;8.68;;;5.22;;
28266;SDS011;15525;45.568;5.448;2023-05-10T03:28:15;10.13;;;5.47;;
28266;SDS011;15525;45.568;5.448;2023-05-10T03:30:43;11.32;;;5.30;;
28266;SDS011;15525;45.568;5.448;2023-05-10T03:33:09;13.90;;;5.65;;
28266;SDS011;15525;45.568;5.448;2023-05-10T03:35:34;9.73;;;5.38;;
28266;SDS011;15525;45.568;5.448;2023-05-10T03:38:00;9.68;;;5.40;;
28266;SDS011;15525;45.568;5.448;2023-05-10T03:40:26;9.45;;;5.57;;
28266;SDS011;15525;45.568;5.448;2023-05-10T03:42:54;11.90;;;5.53;;
28266;SDS011;15525;45.568;5.448;2023-05-10T03:45:20;18.35;;;5.53;;
28266;SDS011;15525;45.568;5.448;2023-05-10T03:47:45;8.20;;;5.15;;
28266;SDS011;15525;45.568;5.448;2023-05-10T03:50:11;9.02;;;4.95;;
28266;SDS011;15525;45.568;5.448;2023-05-10T03:52:36;6.13;;;4.32;;
28266;SDS011;15525;45.568;5.448;2023-05-10T03:55:04;9.43;;;4.72;;
28266;SDS011;15525;45.568;5.448;2023-05-10T03:57:30;7.55;;;4.88;;
28266;SDS011;15525;45.568;5.448;2023-05-10T03:59:55;7.18;;;4.95;;
28266;SDS011;15525;45.568;5.448;2023-05-10T04:02:22;8.95;;;4.70;;
28266;SDS011;15525;45.568;5.448;2023-05-10T04:04:47;8.02;;;4.97;;
28266;SDS011;15525;45.568;5.448;2023-05-10T04:07:13;9.93;;;5.28;;
28266;SDS011;15525;45.568;5.448;2023-05-10T04:09:38;11.82;;;5.93;;
28266;SDS011;15525;45.568;5.448;2023-05-10T04:12:04;11.95;;;5.13;;
28266;SDS011;15525;45.568;5.448;2023-05-10T04:14:30;8.18;;;5.43;;
28266;SDS011;15525;45.568;5.448;2023-05-10T04:16:55;10.27;;;4.80;;
28266;SDS011;15525;45.568;5.448;2023-05-10T04:19:21;9.57;;;4.22;;
28266;SDS011;15525;45.568;5.448;2023-05-10T04:21:46;9.80;;;4.22;;
28266;SDS011;15525;45.568;5.448;2023-05-10T04:24:12;7.68;;;5.40;;
28266;SDS011;15525;45.568;5.448;2023-05-10T04:26:37;9.95;;;4.80;;
28266;SDS011;15525;45.568;5.448;2023-05-10T04:29:02;6.90;;;4.72;;
28266;SDS011;15525;45.568;5.448;2023-05-10T04:31:28;10.10;;;4.40;;
28266;SDS011;15525;45.568;5.448;2023-05-10T04:33:53;7.55;;;4.55;;
28266;SDS011;15525;45.568;5.448;2023-05-10T04:36:19;17.90;;;6.00;;
28266;SDS011;15525;45.568;5.448;2023-05-10T04:38:45;11.52;;;4.93;;
28266;SDS011;15525;45.568;5.448;2023-05-10T04:41:10;8.60;;;5.18;;
28266;SDS011;15525;45.568;5.448;2023-05-10T04:43:36;11.60;;;4.78;;
28266;SDS011;15525;45.568;5.448;2023-05-10T04:46:02;7.85;;;4.32;;
28266;SDS011;15525;45.568;5.448;2023-05-10T04:48:28;7.05;;;3.80;;
28266;SDS011;15525;45.568;5.448;2023-05-10T04:50:54;8.95;;;4.05;;
28266;SDS011;15525;45.568;5.448;2023-05-10T04:53:19;6.13;;;3.70;;
28266;SDS011;15525;45.568;5.448;2023-05-10T04:55:45;7.43;;;3.45;;
28266;SDS011;15525;45.568;5.448;2023-05-10T04:58:11;6.05;;;3.25;;
28266;SDS011;15525;45.568;5.448;2023-05-10T05:00:36;6.90;;;3.40;;
28266;SDS011;15525;45.568;5.448;2023-05-10T05:03:02;7.32;;;3.30;;
28266;SDS011;15525;45.568;5.448;2023-05-10T05:05:27;7.13;;;3.70;;
28266;SDS011;15525;45.568;5.448;2023-05-10T05:07:52;6.78;;;3.50;;
28266;SDS011;15525;45.568;5.448;2023-05-10T05:10:18;4.82;;;3.40;;
28266;SDS011;15525;45.568;5.448;2023-05-10T05:12:43;5.47;;;2.85;;
28266;SDS011;15525;45.568;5.448;2023-05-10T05:15:10;7.10;;;3.13;;
28266;SDS011;15525;45.568;5.448;2023-05-10T05:17:35;6.88;;;2.17;;
28266;SDS011;15525;45.568;5.448;2023-05-10T05:20:01;5.85;;;2.17;;
28266;SDS011;15525;45.568;5.448;2023-05-10T05:22:27;8.98;;;2.30;;
28266;SDS011;15525;45.568;5.448;2023-05-10T05:24:56;4.70;;;2.40;;
28266;SDS011;15525;45.568;5.448;2023-05-10T05:27:23;3.88;;;2.20;;
28266;SDS011;15525;45.568;5.448;2023-05-10T05:29:53;6.50;;;2.30;;
28266;SDS011;15525;45.568;5.448;2023-05-10T05:32:19;4.03;;;2.10;;
28266;SDS011;15525;45.568;5.448;2023-05-10T05:34:45;4.28;;;2.20;;
28266;SDS011;15525;45.568;5.448;2023-05-10T05:37:16;6.82;;;2.40;;
28266;SDS011;15525;45.568;5.448;2023-05-10T05:39:43;8.32;;;2.45;;
28266;SDS011;15525;45.568;5.448;2023-05-10T05:42:09;6.65;;;2.50;;
28266;SDS011;15525;45.568;5.448;2023-05-10T05:44:35;5.88;;;2.20;;
28266;SDS011;15525;45.568;5.448;2023-05-10T05:47:01;5.45;;;2.17;;
28266;SDS011;15525;45.568;5.448;2023-05-10T05:49:26;5.85;;;2.40;;
28266;SDS011;15525;45.568;5.448;2023-05-10T05:51:52;5.03;;;2.20;;
28266;SDS011;15525;45.568;5.448;2023-05-10T05:54:17;9.38;;;2.78;;
28266;SDS011;15525;45.568;5.448;2023-05-10T05:56:43;6.63;;;2.95;;
28266;SDS011;15525;45.568;5.448;2023-05-10T05:59:09;6.07;;;2.90;;
28266;SDS011;15525;45.568;5.448;2023-05-10T06:01:37;13.82;;;2.72;;
28266;SDS011;15525;45.568;5.448;2023-05-10T06:04:02;10.38;;;3.05;;
28266;SDS011;15525;45.568;5.448;2023-05-10T06:06:28;6.60;;;2.60;;
28266;SDS011;15525;45.568;5.448;2023-05-10T06:08:53;8.10;;;2.90;;
28266;SDS011;15525;45.568;5.448;2023-05-10T06:11:19;5.95;;;2.42;;
28266;SDS011;15525;45.568;5.448;2023-05-10T06:13:46;5.57;;;2.55;;
28266;SDS011;15525;45.568;5.448;2023-05-10T06:16:12;7.18;;;2.60;;
28266;SDS011;15525;45.568;5.448;2023-05-10T06:18:38;10.02;;;2.63;;
28266;SDS011;15525;45.568;5.448;2023-05-10T06:21:03;5.28;;;2.55;;
28266;SDS011;15525;45.568;5.448;2023-05-10T06:23:29;6.88;;;2.50;;
28266;SDS011;15525;45.568;5.448;2023-05-10T06:25:54;8.32;;;2.40;;
28266;SDS011;15525;45.568;5.448;2023-05-10T06:28:20;6.57;;;3.33;;
28266;SDS011;15525;45.568;5.448;2023-05-10T06:30:46;5.80;;;2.63;;
28266;SDS011;15525;45.568;5.448;2023-05-10T06:33:11;10.73;;;2.97;;
28266;SDS011;15525;45.568;5.448;2023-05-10T06:35:36;7.80;;;2.78;;
28266;SDS011;15525;45.568;5.448;2023-05-10T06:38:02;7.88;;;2.67;;
28266;SDS011;15525;45.568;5.448;2023-05-10T06:40:27;8.05;;;2.60;;
28266;SDS011;15525;45.568;5.448;2023-05-10T06:42:53;7.93;;;2.38;;
28266;SDS011;15525;45.568;5.448;2023-05-10T06:45:18;6.78;;;2.53;;
28266;SDS011;15525;45.568;5.448;2023-05-10T06:47:44;10.40;;;2.65;;
28266;SDS011;15525;45.568;5.448;2023-05-10T06:50:09;9.02;;;2.90;;
28266;SDS011;15525;45.568;5.448;2023-05-10T06:52:36;10.52;;;2.70;;
28266;SDS011;15525;45.568;5.448;2023-05-10T06:55:02;10.20;;;2.53;;
28266;SDS011;15525;45.568;5.448;2023-05-10T06:57:29;7.07;;;2.35;;
28266;SDS011;15525;45.568;5.448;2023-05-10T06:59:54;8.23;;;2.30;;
28266;SDS011;15525;45.568;5.448;2023-05-10T07:02:21;6.60;;;2.45;;
28266;SDS011;15525;45.568;5.448;2023-05-10T07:04:47;9.38;;;2.80;;
28266;SDS011;15525;45.568;5.448;2023-05-10T07:07:13;6.28;;;2.45;;
28266;SDS011;15525;45.568;5.448;2023-05-10T07:09:39;9.02;;;2.58;;
28266;SDS011;15525;45.568;5.448;2023-05-10T07:12:04;8.32;;;2.72;;
28266;SDS011;15525;45.568;5.448;2023-05-10T07:14:30;5.50;;;2.38;;
28266;SDS011;15525;45.568;5.448;2023-05-10T07:16:55;9.00;;;2.97;;
28266;SDS011;15525;45.568;5.448;2023-05-10T07:19:21;6.32;;;2.20;;
28266;SDS011;15525;45.568;5.448;2023-05-10T07:21:46;6.95;;;2.45;;
28266;SDS011;15525;45.568;5.448;2023-05-10T07:24:12;7.25;;;2.65;;
28266;SDS011;15525;45.568;5.448;2023-05-10T07:26:37;6.40;;;2.55;;
28266;SDS011;15525;45.568;5.448;2023-05-10T07:29:03;6.95;;;2.40;;
28266;SDS011;15525;45.568;5.448;2023-05-10T07:31:28;6.93;;;2.75;;
28266;SDS011;15525;45.568;5.448;2023-05-10T07:33:54;6.68;;;2.65;;
28266;SDS011;15525;45.568;5.448;2023-05-10T07:36:19;6.95;;;2.75;;
28266;SDS011;15525;45.568;5.448;2023-05-10T07:38:45;9.55;;;2.75;;
28266;SDS011;15525;45.568;5.448;2023-05-10T07:41:13;8.27;;;3.00;;
28266;SDS011;15525;45.568;5.448;2023-05-10T07:43:39;7.90;;;2.95;;
28266;SDS011;15525;45.568;5.448;2023-05-10T07:46:04;7.60;;;2.50;;
28266;SDS011;15525;45.568;5.448;2023-05-10T07:48:30;9.38;;;3.13;;
28266;SDS011;15525;45.568;5.448;2023-05-10T07:50:56;10.40;;;2.78;;
28266;SDS011;15525;45.568;5.448;2023-05-10T07:53:21;8.85;;;2.35;;
28266;SDS011;15525;45.568;5.448;2023-05-10T07:55:50;13.00;;;3.22;;
28266;SDS011;15525;45.568;5.448;2023-05-10T07:58:16;5.60;;;2.50;;
28266;SDS011;15525;45.568;5.448;2023-05-10T08:00:42;7.85;;;2.50;;
28266;SDS011;15525;45.568;5.448;2023-05-10T08:03:07;8.82;;;2.40;;
28266;SDS011;15525;45.568;5.448;2023-05-10T08:05:33;5.78;;;2.50;;
28266;SDS011;15525;45.568;5.448;2023-05-10T08:07:58;8.65;;;2.53;;
28266;SDS011;15525;45.568;5.448;2023-05-10T08:10:24;7.72;;;3.13;;
28266;SDS011;15525;45.568;5.448;2023-05-10T08:12:50;8.00;;;2.55;;
28266;SDS011;15525;45.568;5.448;2023-05-10T08:15:15;11.75;;;2.75;;
28266;SDS011;15525;45.568;5.448;2023-05-10T08:17:41;8.63;;;2.60;;
28266;SDS011;15525;45.568;5.448;2023-05-10T08:20:08;6.25;;;2.63;;
28266;SDS011;15525;45.568;5.448;2023-05-10T08:22:33;7.97;;;2.53;;
28266;SDS011;15525;45.568;5.448;2023-05-10T08:24:59;13.75;;;2.92;;
28266;SDS011;15525;45.568;5.448;2023-05-10T08:27:24;8.95;;;2.65;;
28266;SDS011;15525;45.568;5.448;2023-05-10T08:29:50;5.32;;;2.28;;
28266;SDS011;15525;45.568;5.448;2023-05-10T08:32:15;6.00;;;2.40;;
28266;SDS011;15525;45.568;5.448;2023-05-10T08:34:41;8.60;;;2.45;;
28266;SDS011;15525;45.568;5.448;2023-05-10T08:37:06;10.55;;;2.30;;
28266;SDS011;15525;45.568;5.448;2023-05-10T08:39:35;8.20;;;2.50;;
28266;SDS011;15525;45.568;5.448;2023-05-10T08:42:01;8.13;;;2.30;;
28266;SDS011;15525;45.568;5.448;2023-05-10T08:44:29;7.18;;;2.08;;
28266;SDS011;15525;45.568;5.448;2023-05-10T08:46:59;3.63;;;2.00;;
28266;SDS011;15525;45.568;5.448;2023-05-10T08:49:28;8.70;;;2.30;;
28266;SDS011;15525;45.568;5.448;2023-05-10T08:51:56;8.20;;;2.10;;
28266;SDS011;15525;45.568;5.448;2023-05-10T08:54:24;5.55;;;2.08;;
28266;SDS011;15525;45.568;5.448;2023-05-10T08:56:50;6.60;;;1.88;;
28266;SDS011;15525;45.568;5.448;2023-05-10T08:59:15;9.00;;;2.70;;
28266;SDS011;15525;45.568;5.448;2023-05-10T09:01:41;5.20;;;2.10;;
28266;SDS011;15525;45.568;5.448;2023-05-10T09:04:09;7.68;;;2.15;;
28266;SDS011;15525;45.568;5.448;2023-05-10T09:06:34;5.10;;;2.17;;
28266;SDS011;15525;45.568;5.448;2023-05-10T09:09:00;5.95;;;2.17;;
28266;SDS011;15525;45.568;5.448;2023-05-10T09:11:26;5.57;;;2.20;;
28266;SDS011;15525;45.568;5.448;2023-05-10T09:13:54;5.28;;;2.22;;
28266;SDS011;15525;45.568;5.448;2023-05-10T09:16:20;6.25;;;2.60;;
28266;SDS011;15525;45.568;5.448;2023-05-10T09:18:46;6.93;;;2.40;;
28266;SDS011;15525;45.568;5.448;2023-05-10T09:21:11;3.35;;;1.83;;
28266;SDS011;15525;45.568;5.448;2023-05-10T09:23:37;5.35;;;2.10;;
28266;SDS011;15525;45.568;5.448;2023-05-10T09:26:03;5.15;;;1.92;;
28266;SDS011;15525;45.568;5.448;2023-05-10T09:29:12;5.90;;;1.88;;
28266;SDS011;15525;45.568;5.448;2023-05-10T09:31:22;7.88;;;2.10;;
28266;SDS011;15525;45.568;5.448;2023-05-10T09:33:49;7.90;;;2.78;;
28266;SDS011;15525;45.568;5.448;2023-05-10T09:36:16;7.03;;;2.03;;
28266;SDS011;15525;45.568;5.448;2023-05-10T09:38:59;11.93;;;2.67;;
28266;SDS011;15525;45.568;5.448;2023-05-10T09:41:25;6.75;;;2.20;;
28266;SDS011;15525;45.568;5.448;2023-05-10T09:43:51;5.90;;;2.35;;
28266;SDS011;15525;45.568;5.448;2023-05-10T09:46:20;11.07;;;3.35;;
28266;SDS011;15525;45.568;5.448;2023-05-10T09:48:47;6.53;;;2.40;;
28266;SDS011;15525;45.568;5.448;2023-05-10T09:51:20;8.32;;;2.47;;
28266;SDS011;15525;45.568;5.448;2023-05-10T09:53:45;9.13;;;2.50;;
28266;SDS011;15525;45.568;5.448;2023-05-10T09:56:11;5.60;;;2.30;;
28266;SDS011;15525;45.568;5.448;2023-05-10T09:58:37;6.63;;;2.60;;
28266;SDS011;15525;45.568;5.448;2023-05-10T10:01:05;6.75;;;2.85;;
28266;SDS011;15525;45.568;5.448;2023-05-10T10:03:40;7.95;;;2.55;;
28266;SDS011;15525;45.568;5.448;2023-05-10T10:06:07;7.15;;;2.20;;
28266;SDS011;15525;45.568;5.448;2023-05-10T10:08:33;4.90;;;2.20;;
28266;SDS011;15525;45.568;5.448;2023-05-10T10:10:59;5.05;;;2.38;;
28266;SDS011;15525;45.568;5.448;2023-05-10T10:13:24;9.10;;;2.47;;
28266;SDS011;15525;45.568;5.448;2023-05-10T10:15:50;8.43;;;2.30;;
28266;SDS011;15525;45.568;5.448;2023-05-10T10:18:17;8.65;;;2.30;;
28266;SDS011;15525;45.568;5.448;2023-05-10T10:20:44;5.43;;;2.45;;
28266;SDS011;15525;45.568;5.448;2023-05-10T10:23:10;5.28;;;2.50;;
28266;SDS011;15525;45.568;5.448;2023-05-10T10:25:36;5.00;;;1.92;;
28266;SDS011;15525;45.568;5.448;2023-05-10T10:28:09;3.58;;;1.67;;
28266;SDS011;15525;45.568;5.448;2023-05-10T10:30:40;8.82;;;2.03;;
28266;SDS011;15525;45.568;5.448;2023-05-10T10:36:01;5.22;;;1.63;;
28266;SDS011;15525;45.568;5.448;2023-05-10T10:41:28;5.72;;;1.88;;
28266;SDS011;15525;45.568;5.448;2023-05-10T10:49:31;5.32;;;2.15;;
28266;SDS011;15525;45.568;5.448;2023-05-10T10:55:03;4.43;;;1.88;;
28266;SDS011;15525;45.568;5.448;2023-05-10T10:57:32;4.40;;;1.92;;
28266;SDS011;15525;45.568;5.448;2023-05-10T11:03:06;6.63;;;2.03;;
28266;SDS011;15525;45.568;5.448;2023-05-10T11:05:37;6.15;;;1.77;;
28266;SDS011;15525;45.568;5.448;2023-05-10T11:10:49;7.03;;;2.40;;
28266;SDS011;15525;45.568;5.448;2023-05-10T11:13:17;7.90;;;2.20;;
28266;SDS011;15525;45.568;5.448;2023-05-10T11:15:53;2.90;;;2.20;;
28266;SDS011;15525;45.568;5.448;2023-05-10T11:18:19;3.78;;;1.83;;
28266;SDS011;15525;45.568;5.448;2023-05-10T11:20:52;6.78;;;2.35;;
28266;SDS011;15525;45.568;5.448;2023-05-10T11:23:29;7.95;;;2.35;;
28266;SDS011;15525;45.568;5.448;2023-05-10T11:25:56;3.25;;;1.77;;
28266;SDS011;15525;45.568;5.448;2023-05-10T11:28:21;4.82;;;2.05;;
28266;SDS011;15525;45.568;5.448;2023-05-10T11:30:47;4.55;;;1.83;;
28266;SDS011;15525;45.568;5.448;2023-05-10T11:33:19;9.80;;;2.28;;
28266;SDS011;15525;45.568;5.448;2023-05-10T11:35:45;4.85;;;1.83;;
28266;SDS011;15525;45.568;5.448;2023-05-10T11:38:11;6.45;;;1.95;;
28266;SDS011;15525;45.568;5.448;2023-05-10T11:40:37;6.97;;;2.20;;
28266;SDS011;15525;45.568;5.448;2023-05-10T11:43:04;5.00;;;1.95;;
28266;SDS011;15525;45.568;5.448;2023-05-10T11:45:34;4.95;;;2.00;;
28266;SDS011;15525;45.568;5.448;2023-05-10T11:48:00;4.57;;;2.00;;
28266;SDS011;15525;45.568;5.448;2023-05-10T11:50:26;3.58;;;1.65;;
28266;SDS011;15525;45.568;5.448;2023-05-10T11:52:53;3.85;;;2.03;;
28266;SDS011;15525;45.568;5.448;2023-05-10T11:55:22;4.57;;;1.77;;
28266;SDS011;15525;45.568;5.448;2023-05-10T11:57:51;11.00;;;1.92;;
28266;SDS011;15525;45.568;5.448;2023-05-10T12:00:18;4.03;;;1.98;;
28266;SDS011;15525;45.568;5.448;2023-05-10T12:02:43;3.42;;;1.60;;
28266;SDS011;15525;45.568;5.448;2023-05-10T12:05:09;5.75;;;2.05;;
28266;SDS011;15525;45.568;5.448;2023-05-10T12:07:35;4.10;;;2.13;;
28266;SDS011;15525;45.568;5.448;2023-05-10T12:12:40;4.47;;;1.65;;
28266;SDS011;15525;45.568;5.448;2023-05-10T12:15:27;5.10;;;1.52;;
28266;SDS011;15525;45.568;5.448;2023-05-10T12:17:53;4.45;;;1.67;;
28266;SDS011;15525;45.568;5.448;2023-05-10T12:20:19;3.95;;;1.67;;
28266;SDS011;15525;45.568;5.448;2023-05-10T12:22:53;5.82;;;1.50;;
28266;SDS011;15525;45.568;5.448;2023-05-10T12:27:53;2.63;;;1.40;;
28266;SDS011;15525;45.568;5.448;2023-05-10T12:30:23;6.32;;;1.90;;
28266;SDS011;15525;45.568;5.448;2023-05-10T12:32:50;4.38;;;2.00;;
28266;SDS011;15525;45.568;5.448;2023-05-10T12:35:16;5.55;;;1.60;;
28266;SDS011;15525;45.568;5.448;2023-05-10T12:37:45;5.45;;;1.80;;
28266;SDS011;15525;45.568;5.448;2023-05-10T12:40:11;6.57;;;2.20;;
28266;SDS011;15525;45.568;5.448;2023-05-10T12:42:37;4.28;;;1.77;;
28266;SDS011;15525;45.568;5.448;2023-05-10T12:45:07;5.55;;;1.70;;
28266;SDS011;15525;45.568;5.448;2023-05-10T12:47:33;3.80;;;1.90;;
28266;SDS011;15525;45.568;5.448;2023-05-10T12:49:59;4.97;;;1.95;;
28266;SDS011;15525;45.568;5.448;2023-05-10T12:52:25;5.07;;;1.98;;
28266;SDS011;15525;45.568;5.448;2023-05-10T12:54:52;7.60;;;2.88;;
28266;SDS011;15525;45.568;5.448;2023-05-10T12:57:18;6.70;;;2.50;;
28266;SDS011;15525;45.568;5.448;2023-05-10T12:59:43;6.60;;;2.25;;
28266;SDS011;15525;45.568;5.448;2023-05-10T13:02:09;9.88;;;2.58;;
28266;SDS011;15525;45.568;5.448;2023-05-10T13:04:35;6.85;;;2.13;;
28266;SDS011;15525;45.568;5.448;2023-05-10T13:07:04;5.80;;;2.20;;
28266;SDS011;15525;45.568;5.448;2023-05-10T13:09:32;5.82;;;1.58;;
28266;SDS011;15525;45.568;5.448;2023-05-10T13:11:58;5.05;;;2.03;;
28266;SDS011;15525;45.568;5.448;2023-05-10T13:14:24;6.28;;;1.90;;
28266;SDS011;15525;45.568;5.448;2023-05-10T13:16:50;5.38;;;1.90;;
28266;SDS011;15525;45.568;5.448;2023-05-10T13:19:15;4.50;;;1.95;;
28266;SDS011;15525;45.568;5.448;2023-05-10T13:21:41;4.82;;;2.05;;
28266;SDS011;15525;45.568;5.448;2023-05-10T13:24:07;5.38;;;3.22;;
28266;SDS011;15525;45.568;5.448;2023-05-10T13:26:33;6.45;;;2.47;;
28266;SDS011;15525;45.568;5.448;2023-05-10T13:28:58;6.38;;;2.92;;
28266;SDS011;15525;45.568;5.448;2023-05-10T13:31:24;5.82;;;2.60;;
28266;SDS011;15525;45.568;5.448;2023-05-10T13:33:50;7.13;;;2.20;;
28266;SDS011;15525;45.568;5.448;2023-05-10T13:36:15;6.10;;;2.80;;
28266;SDS011;15525;45.568;5.448;2023-05-10T13:38:41;4.15;;;2.45;;
28266;SDS011;15525;45.568;5.448;2023-05-10T13:41:06;5.60;;;2.45;;
28266;SDS011;15525;45.568;5.448;2023-05-10T13:43:31;6.40;;;2.10;;
28266;SDS011;15525;45.568;5.448;2023-05-10T13:45:57;6.30;;;2.25;;
28266;SDS011;15525;45.568;5.448;2023-05-10T13:48:22;7.32;;;2.47;;
28266;SDS011;15525;45.568;5.448;2023-05-10T13:50:48;5.10;;;2.75;;
28266;SDS011;15525;45.568;5.448;2023-05-10T13:53:13;5.47;;;1.83;;
28266;SDS011;15525;45.568;5.448;2023-05-10T13:55:39;5.90;;;1.92;;
28266;SDS011;15525;45.568;5.448;2023-05-10T13:58:05;5.57;;;2.08;;
28266;SDS011;15525;45.568;5.448;2023-05-10T14:00:30;7.05;;;2.47;;
28266;SDS011;15525;45.568;5.448;2023-05-10T14:02:56;6.70;;;2.30;;
28266;SDS011;15525;45.568;5.448;2023-05-10T14:05:21;6.25;;;1.80;;
28266;SDS011;15525;45.568;5.448;2023-05-10T14:07:48;7.13;;;1.70;;
28266;SDS011;15525;45.568;5.448;2023-05-10T14:10:13;7.25;;;2.03;;
28266;SDS011;15525;45.568;5.448;2023-05-10T14:12:39;6.47;;;1.63;;
28266;SDS011;15525;45.568;5.448;2023-05-10T14:15:04;5.05;;;1.83;;
28266;SDS011;15525;45.568;5.448;2023-05-10T14:17:31;6.65;;;1.80;;
28266;SDS011;15525;45.568;5.448;2023-05-10T14:19:57;8.27;;;2.17;;
28266;SDS011;15525;45.568;5.448;2023-05-10T14:22:22;6.50;;;2.03;;
28266;SDS011;15525;45.568;5.448;2023-05-10T14:24:48;7.28;;;2.20;;
28266;SDS011;15525;45.568;5.448;2023-05-10T14:27:13;4.55;;;1.98;;
28266;SDS011;15525;45.568;5.448;2023-05-10T14:29:39;5.25;;;1.73;;
28266;SDS011;15525;45.568;5.448;2023-05-10T14:32:05;4.32;;;2.00;;
28266;SDS011;15525;45.568;5.448;2023-05-10T14:34:30;4.75;;;2.35;;
28266;SDS011;15525;45.568;5.448;2023-05-10T14:36:56;4.75;;;2.10;;
28266;SDS011;15525;45.568;5.448;2023-05-10T14:39:21;6.80;;;1.85;;
28266;SDS011;15525;45.568;5.448;2023-05-10T14:41:47;4.45;;;1.67;;
28266;SDS011;15525;45.568;5.448;2023-05-10T14:44:13;5.68;;;2.05;;
28266;SDS011;15525;45.568;5.448;2023-05-10T14:46:40;7.82;;;2.00;;
28266;SDS011;15525;45.568;5.448;2023-05-10T14:49:06;6.60;;;2.10;;
28266;SDS011;15525;45.568;5.448;2023-05-10T14:51:32;6.60;;;2.20;;
28266;SDS011;15525;45.568;5.448;2023-05-10T14:53:57;6.47;;;1.63;;
28266;SDS011;15525;45.568;5.448;2023-05-10T14:56:23;5.13;;;2.25;;
28266;SDS011;15525;45.568;5.448;2023-05-10T14:58:49;5.20;;;2.38;;
28266;SDS011;15525;45.568;5.448;2023-05-10T15:01:14;8.48;;;1.90;;
28266;SDS011;15525;45.568;5.448;2023-05-10T15:03:40;5.72;;;2.50;;
28266;SDS011;15525;45.568;5.448;2023-05-10T15:06:05;8.93;;;2.30;;
28266;SDS011;15525;45.568;5.448;2023-05-10T15:08:31;6.00;;;2.10;;
28266;SDS011;15525;45.568;5.448;2023-05-10T15:10:56;6.78;;;2.00;;
28266;SDS011;15525;45.568;5.448;2023-05-10T15:13:22;5.45;;;2.10;;
28266;SDS011;15525;45.568;5.448;2023-05-10T15:15:47;8.45;;;2.28;;
28266;SDS011;15525;45.568;5.448;2023-05-10T15:18:13;4.82;;;2.00;;
28266;SDS011;15525;45.568;5.448;2023-05-10T15:20:38;4.13;;;1.83;;
28266;SDS011;15525;45.568;5.448;2023-05-10T15:23:03;4.25;;;2.42;;
28266;SDS011;15525;45.568;5.448;2023-05-10T15:25:29;7.50;;;2.10;;
28266;SDS011;15525;45.568;5.448;2023-05-10T15:27:54;4.05;;;2.10;;
28266;SDS011;15525;45.568;5.448;2023-05-10T15:30:20;10.77;;;2.20;;
28266;SDS011;15525;45.568;5.448;2023-05-10T15:32:45;4.57;;;2.00;;